sensor_id;sensor_type;location;lat;lon;timestamp;pressure;altitude;pressure_sealevel;temperature;humidity
61039;BME280;46919;45.816;3.104;2023-03-26T00:01:28;97388.28;;;9.79;77.60
61039;BME280;46919;45.816;3.104;2023-03-26T00:03:58;97384.28;;;9.70;78.47
61039;BME280;46919;45.816;3.104;2023-03-26T00:06:28;97379.81;;;9.64;79.22
61039;BME280;46919;45.816;3.104;2023-03-26T00:08:55;97376.41;;;9.56;79.46
61039;BME280;46919;45.816;3.104;2023-03-26T00:11:26;97374.00;;;9.48;80.62
61039;BME280;46919;45.816;3.104;2023-03-26T00:13:52;97370.50;;;9.48;81.52
61039;BME280;46919;45.816;3.104;2023-03-26T00:16:21;97380.16;;;9.55;80.81
61039;BME280;46919;45.816;3.104;2023-03-26T00:18:47;97366.66;;;9.55;80.96
61039;BME280;46919;45.816;3.104;2023-03-26T00:21:15;97353.63;;;9.52;82.27
61039;BME280;46919;45.816;3.104;2023-03-26T00:23:42;97343.88;;;9.51;82.88
61039;BME280;46919;45.816;3.104;2023-03-26T00:26:08;97342.84;;;9.52;83.46
61039;BME280;46919;45.816;3.104;2023-03-26T00:28:36;97324.53;;;9.54;83.26
61039;BME280;46919;45.816;3.104;2023-03-26T00:31:05;97324.19;;;9.51;84.01
61039;BME280;46919;45.816;3.104;2023-03-26T00:33:31;97314.44;;;9.38;84.04
61039;BME280;46919;45.816;3.104;2023-03-26T00:35:59;97314.88;;;9.35;84.09
61039;BME280;46919;45.816;3.104;2023-03-26T00:38:26;97320.28;;;9.35;83.36
61039;BME280;46919;45.816;3.104;2023-03-26T00:40:53;97319.09;;;9.31;83.06
61039;BME280;46919;45.816;3.104;2023-03-26T00:43:20;97317.94;;;9.27;83.74
61039;BME280;46919;45.816;3.104;2023-03-26T00:45:51;97321.78;;;9.31;83.42
61039;BME280;46919;45.816;3.104;2023-03-26T00:48:17;97304.91;;;9.35;82.59
61039;BME280;46919;45.816;3.104;2023-03-26T00:50:44;97300.59;;;9.34;82.55
61039;BME280;46919;45.816;3.104;2023-03-26T00:53:11;97289.19;;;9.32;82.96
61039;BME280;46919;45.816;3.104;2023-03-26T00:55:39;97264.59;;;9.29;82.60
61039;BME280;46919;45.816;3.104;2023-03-26T00:58:04;97263.63;;;9.23;82.37
61039;BME280;46919;45.816;3.104;2023-03-26T01:00:33;97245.34;;;9.25;80.75
61039;BME280;46919;45.816;3.104;2023-03-26T01:03:03;97237.38;;;9.18;80.63
61039;BME280;46919;45.816;3.104;2023-03-26T01:10:45;97243.03;;;8.86;81.52
61039;BME280;46919;45.816;3.104;2023-03-26T01:13:20;97237.50;;;8.81;81.67
61039;BME280;46919;45.816;3.104;2023-03-26T01:15:46;97232.00;;;8.76;81.36
61039;BME280;46919;45.816;3.104;2023-03-26T01:18:20;97227.97;;;8.67;81.72
61039;BME280;46919;45.816;3.104;2023-03-26T01:20:52;97228.06;;;8.60;82.11
61039;BME280;46919;45.816;3.104;2023-03-26T01:23:25;97223.16;;;8.69;80.55
61039;BME280;46919;45.816;3.104;2023-03-26T01:25:57;97211.63;;;8.80;79.28
61039;BME280;46919;45.816;3.104;2023-03-26T01:28:31;97201.22;;;8.84;78.33
61039;BME280;46919;45.816;3.104;2023-03-26T01:31:14;97192.22;;;9.02;76.89
61039;BME280;46919;45.816;3.104;2023-03-26T01:34:18;97210.19;;;9.20;75.58
61039;BME280;46919;45.816;3.104;2023-03-26T01:36:56;97199.97;;;9.34;74.02
61039;BME280;46919;45.816;3.104;2023-03-26T01:39:31;97199.03;;;9.40;74.05
61039;BME280;46919;45.816;3.104;2023-03-26T01:42:13;97171.59;;;9.43;74.09
61039;BME280;46919;45.816;3.104;2023-03-26T01:47:15;97169.50;;;9.45;73.67
61039;BME280;46919;45.816;3.104;2023-03-26T01:49:41;97161.06;;;9.53;72.61
61039;BME280;46919;45.816;3.104;2023-03-26T01:52:22;97152.94;;;9.65;71.40
61039;BME280;46919;45.816;3.104;2023-03-26T01:54:51;97132.78;;;9.68;71.83
61039;BME280;46919;45.816;3.104;2023-03-26T02:00:37;97133.25;;;9.65;70.69
61039;BME280;46919;45.816;3.104;2023-03-26T02:05:53;97130.69;;;9.58;71.43
61039;BME280;46919;45.816;3.104;2023-03-26T02:11:02;97120.69;;;9.58;71.93
61039;BME280;46919;45.816;3.104;2023-03-26T02:13:29;97109.22;;;9.51;73.00
61039;BME280;46919;45.816;3.104;2023-03-26T02:15:59;97094.56;;;9.47;73.20
61039;BME280;46919;45.816;3.104;2023-03-26T02:18:26;97105.47;;;9.52;73.19
61039;BME280;46919;45.816;3.104;2023-03-26T02:21:02;97090.47;;;9.56;73.16
61039;BME280;46919;45.816;3.104;2023-03-26T02:23:27;97089.03;;;9.42;73.41
61039;BME280;46919;45.816;3.104;2023-03-26T02:25:54;97069.13;;;9.43;73.52
61039;BME280;46919;45.816;3.104;2023-03-26T02:28:19;97067.25;;;9.43;73.67
61039;BME280;46919;45.816;3.104;2023-03-26T02:30:45;97065.16;;;9.34;74.21
61039;BME280;46919;45.816;3.104;2023-03-26T02:33:11;97059.28;;;9.49;73.73
61039;BME280;46919;45.816;3.104;2023-03-26T02:35:40;97043.53;;;9.57;73.26
61039;BME280;46919;45.816;3.104;2023-03-26T02:38:10;97039.47;;;9.72;72.37
61039;BME280;46919;45.816;3.104;2023-03-26T02:40:39;97074.09;;;10.04;70.92
61039;BME280;46919;45.816;3.104;2023-03-26T02:43:05;97061.03;;;10.75;68.03
61039;BME280;46919;45.816;3.104;2023-03-26T02:45:30;97069.47;;;10.79;67.69
61039;BME280;46919;45.816;3.104;2023-03-26T02:47:55;97072.00;;;10.85;67.45
61039;BME280;46919;45.816;3.104;2023-03-26T02:50:21;97052.22;;;11.19;66.82
61039;BME280;46919;45.816;3.104;2023-03-26T02:52:48;97073.50;;;11.32;67.86
61039;BME280;46919;45.816;3.104;2023-03-26T02:55:14;97075.31;;;11.27;68.66
61039;BME280;46919;45.816;3.104;2023-03-26T02:57:39;97083.75;;;11.30;68.77
61039;BME280;46919;45.816;3.104;2023-03-26T03:00:06;97103.69;;;11.63;67.69
61039;BME280;46919;45.816;3.104;2023-03-26T03:02:33;97128.53;;;11.60;73.99
61039;BME280;46919;45.816;3.104;2023-03-26T03:04:58;97135.63;;;11.27;78.69
61039;BME280;46919;45.816;3.104;2023-03-26T03:07:26;97121.72;;;11.01;82.53
61039;BME280;46919;45.816;3.104;2023-03-26T03:09:51;97125.66;;;10.77;84.86
61039;BME280;46919;45.816;3.104;2023-03-26T03:12:17;97106.00;;;10.64;85.91
61039;BME280;46919;45.816;3.104;2023-03-26T03:14:42;97078.72;;;10.49;86.67
61039;BME280;46919;45.816;3.104;2023-03-26T03:17:07;97090.16;;;10.39;87.34
61039;BME280;46919;45.816;3.104;2023-03-26T03:19:33;97100.13;;;10.39;87.14
61039;BME280;46919;45.816;3.104;2023-03-26T03:21:58;97108.59;;;10.30;87.29
61039;BME280;46919;45.816;3.104;2023-03-26T03:24:24;97102.75;;;10.33;86.99
61039;BME280;46919;45.816;3.104;2023-03-26T03:26:51;97102.16;;;10.31;87.47
61039;BME280;46919;45.816;3.104;2023-03-26T03:29:20;97109.56;;;10.24;88.79
61039;BME280;46919;45.816;3.104;2023-03-26T03:31:46;97119.47;;;10.19;90.30
61039;BME280;46919;45.816;3.104;2023-03-26T03:34:11;97110.84;;;10.05;91.69
61039;BME280;46919;45.816;3.104;2023-03-26T03:36:37;97104.75;;;9.97;93.24
61039;BME280;46919;45.816;3.104;2023-03-26T03:39:03;97130.13;;;9.85;94.03
61039;BME280;46919;45.816;3.104;2023-03-26T03:41:29;97080.34;;;9.92;92.63
61039;BME280;46919;45.816;3.104;2023-03-26T03:43:54;97078.03;;;9.84;92.84
61039;BME280;46919;45.816;3.104;2023-03-26T03:46:20;97092.50;;;9.78;92.15
61039;BME280;46919;45.816;3.104;2023-03-26T03:48:45;97050.75;;;9.69;92.55
61039;BME280;46919;45.816;3.104;2023-03-26T03:51:16;97056.91;;;9.52;93.20
61039;BME280;46919;45.816;3.104;2023-03-26T03:53:42;97033.72;;;9.39;93.47
61039;BME280;46919;45.816;3.104;2023-03-26T03:56:10;97033.69;;;9.51;89.32
61039;BME280;46919;45.816;3.104;2023-03-26T03:58:38;97045.66;;;9.55;89.56
61039;BME280;46919;45.816;3.104;2023-03-26T04:01:03;97040.91;;;9.63;87.27
61039;BME280;46919;45.816;3.104;2023-03-26T04:03:29;97040.44;;;9.66;85.18
61039;BME280;46919;45.816;3.104;2023-03-26T04:05:55;97019.53;;;9.73;85.32
61039;BME280;46919;45.816;3.104;2023-03-26T04:08:21;97053.56;;;9.74;85.66
61039;BME280;46919;45.816;3.104;2023-03-26T04:10:48;97037.50;;;9.67;86.51
61039;BME280;46919;45.816;3.104;2023-03-26T04:13:14;97038.69;;;9.71;85.27
61039;BME280;46919;45.816;3.104;2023-03-26T04:15:41;97034.09;;;9.72;84.96
61039;BME280;46919;45.816;3.104;2023-03-26T04:18:07;97044.31;;;9.70;85.76
61039;BME280;46919;45.816;3.104;2023-03-26T04:20:39;97024.13;;;9.72;85.11
61039;BME280;46919;45.816;3.104;2023-03-26T04:23:14;97040.09;;;9.74;85.50
61039;BME280;46919;45.816;3.104;2023-03-26T04:25:45;97019.53;;;9.73;85.58
61039;BME280;46919;45.816;3.104;2023-03-26T04:30:55;97023.03;;;9.85;82.65
61039;BME280;46919;45.816;3.104;2023-03-26T04:33:26;97036.16;;;9.82;84.73
61039;BME280;46919;45.816;3.104;2023-03-26T04:35:53;97020.72;;;9.77;85.19
61039;BME280;46919;45.816;3.104;2023-03-26T04:38:18;97015.88;;;9.79;84.71
61039;BME280;46919;45.816;3.104;2023-03-26T04:40:44;97039.69;;;9.82;84.20
61039;BME280;46919;45.816;3.104;2023-03-26T04:43:14;97024.75;;;9.91;82.43
61039;BME280;46919;45.816;3.104;2023-03-26T04:45:43;97016.19;;;9.94;81.22
61039;BME280;46919;45.816;3.104;2023-03-26T04:48:11;97036.59;;;9.90;81.24
61039;BME280;46919;45.816;3.104;2023-03-26T04:50:41;97033.66;;;9.92;78.87
61039;BME280;46919;45.816;3.104;2023-03-26T04:53:10;97038.75;;;9.88;77.99
61039;BME280;46919;45.816;3.104;2023-03-26T04:55:45;97045.00;;;9.77;78.33
61039;BME280;46919;45.816;3.104;2023-03-26T04:58:13;97048.06;;;9.69;78.33
61039;BME280;46919;45.816;3.104;2023-03-26T05:00:40;97066.47;;;9.72;78.47
61039;BME280;46919;45.816;3.104;2023-03-26T05:03:11;97060.75;;;9.68;78.55
61039;BME280;46919;45.816;3.104;2023-03-26T05:05:38;97050.56;;;9.58;80.09
61039;BME280;46919;45.816;3.104;2023-03-26T05:08:05;97054.44;;;9.51;81.26
61039;BME280;46919;45.816;3.104;2023-03-26T05:10:30;97025.16;;;9.42;82.32
61039;BME280;46919;45.816;3.104;2023-03-26T05:12:56;97051.50;;;9.52;81.56
61039;BME280;46919;45.816;3.104;2023-03-26T05:15:22;97062.31;;;9.52;81.34
61039;BME280;46919;45.816;3.104;2023-03-26T05:17:47;97072.63;;;9.55;80.75
61039;BME280;46919;45.816;3.104;2023-03-26T05:20:24;97072.88;;;9.42;81.99
61039;BME280;46919;45.816;3.104;2023-03-26T05:22:50;97086.38;;;9.30;82.11
61039;BME280;46919;45.816;3.104;2023-03-26T05:25:16;97080.94;;;9.54;76.48
61039;BME280;46919;45.816;3.104;2023-03-26T05:27:43;97082.22;;;9.51;77.44
61039;BME280;46919;45.816;3.104;2023-03-26T05:30:12;97088.56;;;9.45;77.78
61039;BME280;46919;45.816;3.104;2023-03-26T05:32:38;97098.69;;;9.38;78.46
61039;BME280;46919;45.816;3.104;2023-03-26T05:35:04;97091.50;;;9.55;75.32
61039;BME280;46919;45.816;3.104;2023-03-26T05:37:30;97099.59;;;9.43;76.75
61039;BME280;46919;45.816;3.104;2023-03-26T05:39:56;97103.03;;;9.39;76.65
61039;BME280;46919;45.816;3.104;2023-03-26T05:42:22;97087.56;;;9.34;77.51
61039;BME280;46919;45.816;3.104;2023-03-26T05:44:47;97106.91;;;9.31;75.80
61039;BME280;46919;45.816;3.104;2023-03-26T05:47:13;97079.91;;;9.43;75.80
61039;BME280;46919;45.816;3.104;2023-03-26T05:49:38;97105.34;;;9.35;76.36
61039;BME280;46919;45.816;3.104;2023-03-26T05:52:04;97096.94;;;9.32;76.62
61039;BME280;46919;45.816;3.104;2023-03-26T05:54:29;97088.03;;;9.31;76.64
61039;BME280;46919;45.816;3.104;2023-03-26T05:56:55;97105.34;;;9.35;76.09
61039;BME280;46919;45.816;3.104;2023-03-26T05:59:22;97096.22;;;9.36;75.13
61039;BME280;46919;45.816;3.104;2023-03-26T06:01:47;97097.03;;;9.37;74.49
61039;BME280;46919;45.816;3.104;2023-03-26T06:04:16;97091.06;;;9.35;73.67
61039;BME280;46919;45.816;3.104;2023-03-26T06:06:42;97091.31;;;9.33;74.73
61039;BME280;46919;45.816;3.104;2023-03-26T06:09:09;97101.28;;;9.33;74.58
61039;BME280;46919;45.816;3.104;2023-03-26T06:11:36;97107.47;;;9.33;74.20
61039;BME280;46919;45.816;3.104;2023-03-26T06:14:01;97098.69;;;9.38;74.33
61039;BME280;46919;45.816;3.104;2023-03-26T06:16:27;97085.09;;;9.33;74.62
61039;BME280;46919;45.816;3.104;2023-03-26T06:18:52;97113.13;;;9.32;75.32
61039;BME280;46919;45.816;3.104;2023-03-26T06:21:18;97109.47;;;9.38;74.41
61039;BME280;46919;45.816;3.104;2023-03-26T06:23:43;97115.81;;;9.32;74.31
61039;BME280;46919;45.816;3.104;2023-03-26T06:26:09;97141.59;;;9.28;75.26
61039;BME280;46919;45.816;3.104;2023-03-26T06:28:34;97126.72;;;9.25;75.85
61039;BME280;46919;45.816;3.104;2023-03-26T06:31:00;97146.16;;;9.27;75.28
61039;BME280;46919;45.816;3.104;2023-03-26T06:33:26;97153.56;;;9.32;75.59
61039;BME280;46919;45.816;3.104;2023-03-26T06:35:52;97150.28;;;9.30;75.67
61039;BME280;46919;45.816;3.104;2023-03-26T06:38:18;97150.16;;;9.24;76.40
61039;BME280;46919;45.816;3.104;2023-03-26T06:40:43;97142.31;;;9.11;77.14
61039;BME280;46919;45.816;3.104;2023-03-26T06:43:09;97141.56;;;9.04;77.24
61039;BME280;46919;45.816;3.104;2023-03-26T06:45:34;97128.72;;;9.06;76.88
61039;BME280;46919;45.816;3.104;2023-03-26T06:48:00;97138.19;;;8.97;77.76
61039;BME280;46919;45.816;3.104;2023-03-26T06:50:26;97138.06;;;8.92;77.26
61039;BME280;46919;45.816;3.104;2023-03-26T06:52:53;97118.97;;;9.05;75.62
61039;BME280;46919;45.816;3.104;2023-03-26T06:55:19;97136.34;;;9.09;73.91
61039;BME280;46919;45.816;3.104;2023-03-26T06:57:49;97129.63;;;9.00;74.74
61039;BME280;46919;45.816;3.104;2023-03-26T07:00:15;97130.47;;;8.88;75.87
61039;BME280;46919;45.816;3.104;2023-03-26T07:02:40;97137.59;;;8.83;76.43
61039;BME280;46919;45.816;3.104;2023-03-26T07:05:06;97133.63;;;8.85;76.55
61039;BME280;46919;45.816;3.104;2023-03-26T07:07:32;97143.19;;;8.81;76.81
61039;BME280;46919;45.816;3.104;2023-03-26T07:09:57;97144.50;;;8.79;76.36
61039;BME280;46919;45.816;3.104;2023-03-26T07:12:24;97141.19;;;8.77;76.16
61039;BME280;46919;45.816;3.104;2023-03-26T07:14:50;97144.13;;;8.75;76.02
61039;BME280;46919;45.816;3.104;2023-03-26T07:17:16;97150.81;;;8.73;76.67
61039;BME280;46919;45.816;3.104;2023-03-26T07:19:41;97152.81;;;8.77;75.27
61039;BME280;46919;45.816;3.104;2023-03-26T07:22:13;97139.94;;;8.79;75.35
61039;BME280;46919;45.816;3.104;2023-03-26T07:24:40;97140.03;;;8.73;76.08
61039;BME280;46919;45.816;3.104;2023-03-26T07:37:59;97134.00;;;9.01;72.23
61039;BME280;46919;45.816;3.104;2023-03-26T07:45:53;97132.34;;;9.00;71.64
61039;BME280;46919;45.816;3.104;2023-03-26T07:48:22;97129.16;;;9.15;69.76
61039;BME280;46919;45.816;3.104;2023-03-26T07:50:54;97133.38;;;9.22;69.91
61039;BME280;46919;45.816;3.104;2023-03-26T07:53:20;97143.22;;;9.40;67.88
61039;BME280;46919;45.816;3.104;2023-03-26T07:55:52;97144.88;;;9.53;66.24
61039;BME280;46919;45.816;3.104;2023-03-26T08:01:12;97176.72;;;9.80;67.75
61039;BME280;46919;45.816;3.104;2023-03-26T08:06:33;97161.66;;;10.08;69.17
61039;BME280;46919;45.816;3.104;2023-03-26T08:09:37;97159.19;;;10.06;70.86
61039;BME280;46919;45.816;3.104;2023-03-26T08:20:48;97130.13;;;9.96;72.82
61039;BME280;46919;45.816;3.104;2023-03-26T08:23:28;97118.53;;;10.13;68.17
61039;BME280;46919;45.816;3.104;2023-03-26T08:26:00;97096.06;;;10.24;66.34
61039;BME280;46919;45.816;3.104;2023-03-26T08:28:52;97106.13;;;10.41;65.43
61039;BME280;46919;45.816;3.104;2023-03-26T08:31:26;97113.84;;;10.49;64.63
61039;BME280;46919;45.816;3.104;2023-03-26T08:33:52;97122.09;;;10.59;61.53
61039;BME280;46919;45.816;3.104;2023-03-26T08:36:18;97112.88;;;10.72;60.29
61039;BME280;46919;45.816;3.104;2023-03-26T08:38:43;97089.47;;;10.78;56.44
61039;BME280;46919;45.816;3.104;2023-03-26T08:44:06;97088.13;;;10.97;56.06
61039;BME280;46919;45.816;3.104;2023-03-26T08:53:16;97092.19;;;11.34;53.91
61039;BME280;46919;45.816;3.104;2023-03-26T09:30:02;97106.72;;;12.38;47.34
61039;BME280;46919;45.816;3.104;2023-03-26T09:38:43;97194.78;;;12.13;54.01
61039;BME280;46919;45.816;3.104;2023-03-26T09:41:25;97199.19;;;11.98;55.21
61039;BME280;46919;45.816;3.104;2023-03-26T09:49:48;97234.69;;;10.54;69.25
61039;BME280;46919;45.816;3.104;2023-03-26T09:52:25;97231.22;;;10.18;72.59
61039;BME280;46919;45.816;3.104;2023-03-26T10:00:37;97279.88;;;8.44;87.51
61039;BME280;46919;45.816;3.104;2023-03-26T10:10:56;97253.44;;;8.34;91.44
61039;BME280;46919;45.816;3.104;2023-03-26T10:16:20;97278.94;;;8.68;79.30
61039;BME280;46919;45.816;3.104;2023-03-26T10:30:31;97241.97;;;9.30;75.10
61039;BME280;46919;45.816;3.104;2023-03-26T10:41:55;97226.91;;;10.05;69.85
61039;BME280;46919;45.816;3.104;2023-03-26T10:53:11;97220.53;;;10.35;62.10
61039;BME280;46919;45.816;3.104;2023-03-26T10:55:41;97232.28;;;10.28;65.59
61039;BME280;46919;45.816;3.104;2023-03-26T10:58:26;97235.22;;;10.27;68.42
61039;BME280;46919;45.816;3.104;2023-03-26T11:11:22;97270.09;;;10.28;74.56
61039;BME280;46919;45.816;3.104;2023-03-26T11:14:07;97252.53;;;9.67;83.55
61039;BME280;46919;45.816;3.104;2023-03-26T11:16:59;97243.38;;;9.44;87.17
61039;BME280;46919;45.816;3.104;2023-03-26T11:19:47;97256.25;;;9.42;89.54
61039;BME280;46919;45.816;3.104;2023-03-26T11:31:14;97209.25;;;9.73;89.38
61039;BME280;46919;45.816;3.104;2023-03-26T11:33:47;97216.97;;;9.82;88.48
61039;BME280;46919;45.816;3.104;2023-03-26T11:36:22;97222.38;;;9.93;86.96
61039;BME280;46919;45.816;3.104;2023-03-26T11:38:50;97208.88;;;9.93;85.86
61039;BME280;46919;45.816;3.104;2023-03-26T11:41:21;97213.94;;;9.78;84.25
61039;BME280;46919;45.816;3.104;2023-03-26T11:43:53;97219.47;;;9.71;82.50
61039;BME280;46919;45.816;3.104;2023-03-26T11:46:22;97184.25;;;9.78;81.14
61039;BME280;46919;45.816;3.104;2023-03-26T11:48:55;97179.84;;;10.01;81.21
61039;BME280;46919;45.816;3.104;2023-03-26T11:51:33;97166.56;;;10.11;79.86
61039;BME280;46919;45.816;3.104;2023-03-26T11:54:04;97160.31;;;10.34;80.73
61039;BME280;46919;45.816;3.104;2023-03-26T11:56:48;97144.19;;;10.85;70.54
61039;BME280;46919;45.816;3.104;2023-03-26T11:59:26;97165.81;;;11.19;71.09
61039;BME280;46919;45.816;3.104;2023-03-26T12:01:58;97155.34;;;11.05;73.90
61039;BME280;46919;45.816;3.104;2023-03-26T12:04:42;97165.13;;;11.46;73.94
61039;BME280;46919;45.816;3.104;2023-03-26T12:07:30;97163.72;;;11.99;73.88
61039;BME280;46919;45.816;3.104;2023-03-26T12:10:04;97149.41;;;12.26;77.75
61039;BME280;46919;45.816;3.104;2023-03-26T12:12:32;97155.78;;;12.14;70.47
61039;BME280;46919;45.816;3.104;2023-03-26T12:15:00;97141.81;;;12.50;72.46
61039;BME280;46919;45.816;3.104;2023-03-26T12:17:33;97148.50;;;12.69;67.17
61039;BME280;46919;45.816;3.104;2023-03-26T12:20:00;97137.06;;;12.95;66.98
61039;BME280;46919;45.816;3.104;2023-03-26T12:28:04;97113.59;;;14.11;59.43
61039;BME280;46919;45.816;3.104;2023-03-26T12:30:32;97129.63;;;14.03;63.02
61039;BME280;46919;45.816;3.104;2023-03-26T12:33:01;97136.69;;;14.04;59.67
61039;BME280;46919;45.816;3.104;2023-03-26T12:35:30;97127.34;;;13.84;57.45
61039;BME280;46919;45.816;3.104;2023-03-26T12:38:32;97116.56;;;14.05;51.70
61039;BME280;46919;45.816;3.104;2023-03-26T12:41:15;97100.06;;;13.58;50.17
61039;BME280;46919;45.816;3.104;2023-03-26T12:43:45;97142.31;;;13.92;61.25
61039;BME280;46919;45.816;3.104;2023-03-26T12:46:25;97121.06;;;14.57;56.18
61039;BME280;46919;45.816;3.104;2023-03-26T12:48:53;97113.75;;;14.68;54.93
61039;BME280;46919;45.816;3.104;2023-03-26T12:54:08;97100.00;;;14.11;52.82
61039;BME280;46919;45.816;3.104;2023-03-26T12:59:52;97114.16;;;13.18;53.12
61039;BME280;46919;45.816;3.104;2023-03-26T13:21:53;97058.00;;;14.81;51.32
61039;BME280;46919;45.816;3.104;2023-03-26T13:27:34;97115.50;;;14.11;56.36
61039;BME280;46919;45.816;3.104;2023-03-26T13:30:05;97140.72;;;12.51;64.88
61039;BME280;46919;45.816;3.104;2023-03-26T13:33:03;97145.34;;;11.62;68.66
61039;BME280;46919;45.816;3.104;2023-03-26T13:35:38;97153.94;;;11.20;72.23
61039;BME280;46919;45.816;3.104;2023-03-26T13:38:41;97132.56;;;11.01;72.03
61039;BME280;46919;45.816;3.104;2023-03-26T13:42:03;97123.13;;;11.60;75.26
61039;BME280;46919;45.816;3.104;2023-03-26T13:47:28;97106.75;;;13.03;69.91
61039;BME280;46919;45.816;3.104;2023-03-26T13:50:19;97089.72;;;12.75;60.22
61039;BME280;46919;45.816;3.104;2023-03-26T13:53:03;97075.06;;;12.71;57.89
61039;BME280;46919;45.816;3.104;2023-03-26T13:55:36;97086.66;;;12.34;59.55
61039;BME280;46919;45.816;3.104;2023-03-26T13:58:21;97088.78;;;12.32;58.93
61039;BME280;46919;45.816;3.104;2023-03-26T14:06:18;97066.66;;;11.24;58.86
61039;BME280;46919;45.816;3.104;2023-03-26T14:08:51;97066.41;;;11.09;59.99
61039;BME280;46919;45.816;3.104;2023-03-26T14:11:27;97054.69;;;11.03;59.18
61039;BME280;46919;45.816;3.104;2023-03-26T14:17:38;97043.09;;;10.86;57.31
61039;BME280;46919;45.816;3.104;2023-03-26T14:23:10;97037.38;;;10.65;57.48
61039;BME280;46919;45.816;3.104;2023-03-26T14:31:27;97028.41;;;10.14;57.89
61039;BME280;46919;45.816;3.104;2023-03-26T14:45:46;96979.00;;;9.68;61.05
61039;BME280;46919;45.816;3.104;2023-03-26T14:51:07;96961.19;;;10.01;61.47
61039;BME280;46919;45.816;3.104;2023-03-26T14:54:09;96946.19;;;10.39;60.14
61039;BME280;46919;45.816;3.104;2023-03-26T14:59:51;96912.72;;;10.79;58.65
61039;BME280;46919;45.816;3.104;2023-03-26T15:11:31;96909.16;;;10.56;60.13
61039;BME280;46919;45.816;3.104;2023-03-26T15:29:07;96924.47;;;10.16;59.18
61039;BME280;46919;45.816;3.104;2023-03-26T15:48:13;96930.94;;;9.24;63.38
61039;BME280;46919;45.816;3.104;2023-03-26T15:53:55;96940.28;;;9.04;65.13
61039;BME280;46919;45.816;3.104;2023-03-26T16:02:38;96949.34;;;8.51;71.53
61039;BME280;46919;45.816;3.104;2023-03-26T16:18:40;96901.66;;;7.80;81.92
61039;BME280;46919;45.816;3.104;2023-03-26T16:31:24;96889.59;;;7.29;87.14
61039;BME280;46919;45.816;3.104;2023-03-26T16:36:53;96871.38;;;7.31;89.34
61039;BME280;46919;45.816;3.104;2023-03-26T16:39:22;96848.56;;;7.22;91.34
61039;BME280;46919;45.816;3.104;2023-03-26T16:50:01;96823.97;;;7.49;92.51
61039;BME280;46919;45.816;3.104;2023-03-26T16:55:14;96824.13;;;7.77;92.27
61039;BME280;46919;45.816;3.104;2023-03-26T17:03:15;96810.22;;;7.80;93.19
61039;BME280;46919;45.816;3.104;2023-03-26T17:11:35;96805.75;;;7.98;92.00
61039;BME280;46919;45.816;3.104;2023-03-26T17:22:22;96802.34;;;7.67;91.21
61039;BME280;46919;45.816;3.104;2023-03-26T17:41:04;96844.03;;;7.34;93.61
61039;BME280;46919;45.816;3.104;2023-03-26T17:46:43;96855.03;;;7.33;91.49
61039;BME280;46919;45.816;3.104;2023-03-26T17:54:25;96855.06;;;7.14;93.34
61039;BME280;46919;45.816;3.104;2023-03-26T17:56:54;96846.44;;;7.12;93.35
61039;BME280;46919;45.816;3.104;2023-03-26T17:59:24;96847.25;;;7.13;93.53
61039;BME280;46919;45.816;3.104;2023-03-26T18:01:57;96848.41;;;7.17;94.50
61039;BME280;46919;45.816;3.104;2023-03-26T18:04:35;96848.09;;;7.25;94.00
61039;BME280;46919;45.816;3.104;2023-03-26T18:18:12;96849.03;;;7.19;95.69
61039;BME280;46919;45.816;3.104;2023-03-26T18:20:43;96849.03;;;7.19;95.99
61039;BME280;46919;45.816;3.104;2023-03-26T18:23:20;96850.97;;;7.12;96.30
61039;BME280;46919;45.816;3.104;2023-03-26T18:25:55;96852.03;;;7.11;96.89
61039;BME280;46919;45.816;3.104;2023-03-26T18:28:29;96857.41;;;7.11;97.10
61039;BME280;46919;45.816;3.104;2023-03-26T18:31:12;96866.28;;;7.11;98.02
61039;BME280;46919;45.816;3.104;2023-03-26T18:33:46;96865.47;;;7.11;98.49
61039;BME280;46919;45.816;3.104;2023-03-26T18:36:13;96867.94;;;7.12;99.19
61039;BME280;46919;45.816;3.104;2023-03-26T18:38:40;96870.00;;;7.10;98.69
61039;BME280;46919;45.816;3.104;2023-03-26T18:41:15;96872.47;;;7.12;99.97
61039;BME280;46919;45.816;3.104;2023-03-26T18:43:43;96874.78;;;7.08;100.00
61039;BME280;46919;45.816;3.104;2023-03-26T18:46:11;96870.09;;;7.03;100.00
61039;BME280;46919;45.816;3.104;2023-03-26T18:48:37;96851.16;;;6.98;100.00
61039;BME280;46919;45.816;3.104;2023-03-26T18:51:04;96866.09;;;6.94;100.00
61039;BME280;46919;45.816;3.104;2023-03-26T18:53:34;96867.72;;;6.95;100.00
61039;BME280;46919;45.816;3.104;2023-03-26T18:56:17;96871.00;;;6.97;100.00
61039;BME280;46919;45.816;3.104;2023-03-26T18:58:49;96873.59;;;7.04;100.00
61039;BME280;46919;45.816;3.104;2023-03-26T19:01:16;96872.78;;;7.03;100.00
61039;BME280;46919;45.816;3.104;2023-03-26T19:03:42;96906.50;;;6.99;100.00
61039;BME280;46919;45.816;3.104;2023-03-26T19:06:09;96920.09;;;7.04;100.00
61039;BME280;46919;45.816;3.104;2023-03-26T19:08:37;96913.53;;;7.00;100.00
61039;BME280;46919;45.816;3.104;2023-03-26T19:11:06;96936.28;;;6.98;100.00
61039;BME280;46919;45.816;3.104;2023-03-26T19:13:34;96951.59;;;6.97;100.00
61039;BME280;46919;45.816;3.104;2023-03-26T19:16:06;96973.09;;;6.97;100.00
61039;BME280;46919;45.816;3.104;2023-03-26T19:18:35;96990.84;;;6.80;100.00
61039;BME280;46919;45.816;3.104;2023-03-26T19:21:02;96997.75;;;6.69;100.00
61039;BME280;46919;45.816;3.104;2023-03-26T19:23:37;97002.22;;;6.57;100.00
61039;BME280;46919;45.816;3.104;2023-03-26T19:26:05;97003.78;;;6.46;100.00
61039;BME280;46919;45.816;3.104;2023-03-26T19:28:41;97008.94;;;6.41;100.00
61039;BME280;46919;45.816;3.104;2023-03-26T19:31:26;97029.84;;;6.39;100.00
61039;BME280;46919;45.816;3.104;2023-03-26T19:34:02;97049.06;;;6.35;100.00
61039;BME280;46919;45.816;3.104;2023-03-26T19:36:51;97061.88;;;6.33;100.00
61039;BME280;46919;45.816;3.104;2023-03-26T19:39:41;97079.84;;;6.33;100.00
61039;BME280;46919;45.816;3.104;2023-03-26T19:42:13;97090.19;;;6.29;100.00
61039;BME280;46919;45.816;3.104;2023-03-26T19:44:39;97106.53;;;6.21;100.00
61039;BME280;46919;45.816;3.104;2023-03-26T19:47:20;97117.16;;;6.09;100.00
61039;BME280;46919;45.816;3.104;2023-03-26T19:49:50;97127.66;;;6.11;100.00
61039;BME280;46919;45.816;3.104;2023-03-26T19:52:36;97131.97;;;6.12;100.00